sensor_id;sensor_type;location;lat;lon;timestamp;P1;durP1;ratioP1;P2;durP2;ratioP2
58896;SDS011;44677;52.378;10.400;2023-07-28T00:01:56;10.60;;;9.50;;
58896;SDS011;44677;52.378;10.400;2023-07-28T00:04:22;9.40;;;8.50;;
58896;SDS011;44677;52.378;10.400;2023-07-28T00:06:47;10.50;;;8.60;;
58896;SDS011;44677;52.378;10.400;2023-07-28T00:09:12;9.50;;;8.60;;
58896;SDS011;44677;52.378;10.400;2023-07-28T00:11:38;9.90;;;8.80;;
58896;SDS011;44677;52.378;10.400;2023-07-28T00:14:03;9.70;;;7.80;;
58896;SDS011;44677;52.378;10.400;2023-07-28T00:16:29;9.70;;;8.30;;
58896;SDS011;44677;52.378;10.400;2023-07-28T00:18:54;10.80;;;7.90;;
58896;SDS011;44677;52.378;10.400;2023-07-28T00:21:19;12.20;;;8.30;;
58896;SDS011;44677;52.378;10.400;2023-07-28T00:23:45;8.60;;;7.80;;
58896;SDS011;44677;52.378;10.400;2023-07-28T00:26:10;8.00;;;7.30;;
58896;SDS011;44677;52.378;10.400;2023-07-28T00:28:35;8.60;;;7.70;;
58896;SDS011;44677;52.378;10.400;2023-07-28T00:31:01;9.00;;;8.10;;
58896;SDS011;44677;52.378;10.400;2023-07-28T00:33:26;8.10;;;7.40;;
58896;SDS011;44677;52.378;10.400;2023-07-28T00:35:52;7.40;;;6.70;;
58896;SDS011;44677;52.378;10.400;2023-07-28T00:38:17;7.80;;;7.20;;
58896;SDS011;44677;52.378;10.400;2023-07-28T00:40:42;7.70;;;7.00;;
58896;SDS011;44677;52.378;10.400;2023-07-28T00:43:08;7.00;;;6.30;;
58896;SDS011;44677;52.378;10.400;2023-07-28T00:45:33;7.70;;;7.00;;
58896;SDS011;44677;52.378;10.400;2023-07-28T00:47:59;8.00;;;6.90;;
58896;SDS011;44677;52.378;10.400;2023-07-28T00:50:25;8.00;;;7.20;;
58896;SDS011;44677;52.378;10.400;2023-07-28T00:52:51;10.60;;;7.30;;
58896;SDS011;44677;52.378;10.400;2023-07-28T00:55:17;7.50;;;6.80;;
58896;SDS011;44677;52.378;10.400;2023-07-28T00:57:43;9.50;;;6.90;;
58896;SDS011;44677;52.378;10.400;2023-07-28T01:00:09;10.50;;;7.30;;
58896;SDS011;44677;52.378;10.400;2023-07-28T01:02:36;7.70;;;7.00;;
58896;SDS011;44677;52.378;10.400;2023-07-28T01:10:24;9.40;;;7.90;;
58896;SDS011;44677;52.378;10.400;2023-07-28T01:12:51;10.60;;;7.20;;
58896;SDS011;44677;52.378;10.400;2023-07-28T01:15:17;9.40;;;7.40;;
58896;SDS011;44677;52.378;10.400;2023-07-28T01:17:42;8.00;;;7.30;;
58896;SDS011;44677;52.378;10.400;2023-07-28T01:20:08;9.60;;;7.10;;
58896;SDS011;44677;52.378;10.400;2023-07-28T01:22:45;8.40;;;7.60;;
58896;SDS011;44677;52.378;10.400;2023-07-28T01:28:33;8.50;;;7.50;;
58896;SDS011;44677;52.378;10.400;2023-07-28T01:33:26;9.10;;;7.10;;
58896;SDS011;44677;52.378;10.400;2023-07-28T01:35:52;10.20;;;7.80;;
58896;SDS011;44677;52.378;10.400;2023-07-28T01:38:17;8.30;;;7.50;;
58896;SDS011;44677;52.378;10.400;2023-07-28T01:40:43;8.50;;;6.90;;
58896;SDS011;44677;52.378;10.400;2023-07-28T01:43:08;7.90;;;7.20;;
58896;SDS011;44677;52.378;10.400;2023-07-28T01:45:34;10.10;;;7.70;;
58896;SDS011;44677;52.378;10.400;2023-07-28T01:47:59;8.50;;;7.20;;
58896;SDS011;44677;52.378;10.400;2023-07-28T01:50:25;8.80;;;6.80;;
58896;SDS011;44677;52.378;10.400;2023-07-28T01:52:50;8.80;;;6.80;;
58896;SDS011;44677;52.378;10.400;2023-07-28T01:55:16;8.80;;;7.30;;
58896;SDS011;44677;52.378;10.400;2023-07-28T01:57:49;8.30;;;7.50;;
58896;SDS011;44677;52.378;10.400;2023-07-28T02:00:16;7.60;;;6.90;;
58896;SDS011;44677;52.378;10.400;2023-07-28T02:02:46;10.00;;;6.10;;
58896;SDS011;44677;52.378;10.400;2023-07-28T02:05:12;7.10;;;6.40;;
58896;SDS011;44677;52.378;10.400;2023-07-28T02:07:37;8.00;;;6.00;;
58896;SDS011;44677;52.378;10.400;2023-07-28T02:10:03;7.00;;;6.20;;
58896;SDS011;44677;52.378;10.400;2023-07-28T02:12:29;6.90;;;6.00;;
58896;SDS011;44677;52.378;10.400;2023-07-28T02:14:54;6.80;;;5.70;;
58896;SDS011;44677;52.378;10.400;2023-07-28T02:17:19;8.40;;;5.30;;
58896;SDS011;44677;52.378;10.400;2023-07-28T02:19:45;6.20;;;5.60;;
58896;SDS011;44677;52.378;10.400;2023-07-28T02:22:11;6.90;;;6.10;;
58896;SDS011;44677;52.378;10.400;2023-07-28T02:24:36;7.00;;;5.60;;
58896;SDS011;44677;52.378;10.400;2023-07-28T02:27:02;6.10;;;5.50;;
58896;SDS011;44677;52.378;10.400;2023-07-28T02:29:27;6.20;;;5.70;;
58896;SDS011;44677;52.378;10.400;2023-07-28T02:31:53;9.30;;;6.10;;
58896;SDS011;44677;52.378;10.400;2023-07-28T02:34:18;7.00;;;6.00;;
58896;SDS011;44677;52.378;10.400;2023-07-28T02:36:43;7.20;;;6.00;;
58896;SDS011;44677;52.378;10.400;2023-07-28T02:39:09;6.30;;;5.80;;
58896;SDS011;44677;52.378;10.400;2023-07-28T02:41:34;6.40;;;5.80;;
58896;SDS011;44677;52.378;10.400;2023-07-28T02:43:59;8.00;;;6.10;;
58896;SDS011;44677;52.378;10.400;2023-07-28T02:46:25;10.30;;;6.40;;
58896;SDS011;44677;52.378;10.400;2023-07-28T02:48:51;6.80;;;6.10;;
58896;SDS011;44677;52.378;10.400;2023-07-28T02:51:17;9.10;;;6.50;;
58896;SDS011;44677;52.378;10.400;2023-07-28T02:53:42;6.90;;;6.30;;
58896;SDS011;44677;52.378;10.400;2023-07-28T02:56:07;8.70;;;5.90;;
58896;SDS011;44677;52.378;10.400;2023-07-28T02:58:33;9.70;;;6.40;;
58896;SDS011;44677;52.378;10.400;2023-07-28T03:00:58;7.30;;;5.60;;
58896;SDS011;44677;52.378;10.400;2023-07-28T03:03:30;6.40;;;5.80;;
58896;SDS011;44677;52.378;10.400;2023-07-28T03:05:56;6.70;;;6.10;;
58896;SDS011;44677;52.378;10.400;2023-07-28T03:08:24;6.40;;;5.70;;
58896;SDS011;44677;52.378;10.400;2023-07-28T03:10:49;6.70;;;5.70;;
58896;SDS011;44677;52.378;10.400;2023-07-28T03:13:15;8.80;;;5.40;;
58896;SDS011;44677;52.378;10.400;2023-07-28T03:15:40;6.50;;;5.40;;
58896;SDS011;44677;52.378;10.400;2023-07-28T03:18:06;6.00;;;4.90;;
58896;SDS011;44677;52.378;10.400;2023-07-28T03:20:31;6.40;;;5.00;;
58896;SDS011;44677;52.378;10.400;2023-07-28T03:22:57;5.50;;;5.00;;
58896;SDS011;44677;52.378;10.400;2023-07-28T03:25:22;6.00;;;5.50;;
58896;SDS011;44677;52.378;10.400;2023-07-28T03:27:48;5.10;;;4.60;;
58896;SDS011;44677;52.378;10.400;2023-07-28T03:30:14;6.30;;;4.60;;
58896;SDS011;44677;52.378;10.400;2023-07-28T03:32:39;7.30;;;4.50;;
58896;SDS011;44677;52.378;10.400;2023-07-28T03:35:05;6.00;;;5.00;;
58896;SDS011;44677;52.378;10.400;2023-07-28T03:37:32;6.30;;;5.10;;
58896;SDS011;44677;52.378;10.400;2023-07-28T03:39:58;4.50;;;4.20;;
58896;SDS011;44677;52.378;10.400;2023-07-28T03:42:28;5.00;;;4.20;;
58896;SDS011;44677;52.378;10.400;2023-07-28T03:44:54;4.70;;;4.20;;
58896;SDS011;44677;52.378;10.400;2023-07-28T03:47:19;8.10;;;4.10;;
58896;SDS011;44677;52.378;10.400;2023-07-28T03:49:44;4.70;;;4.10;;
58896;SDS011;44677;52.378;10.400;2023-07-28T03:52:10;3.50;;;3.20;;
58896;SDS011;44677;52.378;10.400;2023-07-28T03:54:35;5.20;;;4.00;;
58896;SDS011;44677;52.378;10.400;2023-07-28T03:57:00;3.90;;;3.60;;
58896;SDS011;44677;52.378;10.400;2023-07-28T03:59:26;3.90;;;3.60;;
58896;SDS011;44677;52.378;10.400;2023-07-28T04:01:51;6.90;;;3.60;;
58896;SDS011;44677;52.378;10.400;2023-07-28T04:04:18;4.70;;;3.30;;
58896;SDS011;44677;52.378;10.400;2023-07-28T04:09:11;3.70;;;3.40;;
58896;SDS011;44677;52.378;10.400;2023-07-28T04:11:38;3.60;;;3.40;;
58896;SDS011;44677;52.378;10.400;2023-07-28T04:14:03;6.80;;;3.50;;
58896;SDS011;44677;52.378;10.400;2023-07-28T04:16:29;3.60;;;3.30;;
58896;SDS011;44677;52.378;10.400;2023-07-28T04:18:54;3.60;;;3.20;;
58896;SDS011;44677;52.378;10.400;2023-07-28T04:21:20;3.40;;;3.10;;
58896;SDS011;44677;52.378;10.400;2023-07-28T04:23:46;2.80;;;2.60;;
58896;SDS011;44677;52.378;10.400;2023-07-28T04:26:11;3.60;;;3.00;;
58896;SDS011;44677;52.378;10.400;2023-07-28T04:28:36;3.60;;;3.30;;
58896;SDS011;44677;52.378;10.400;2023-07-28T04:31:02;4.20;;;3.00;;
58896;SDS011;44677;52.378;10.400;2023-07-28T04:33:43;3.10;;;2.80;;
58896;SDS011;44677;52.378;10.400;2023-07-28T04:36:09;3.30;;;3.00;;
58896;SDS011;44677;52.378;10.400;2023-07-28T04:38:35;8.00;;;3.90;;
58896;SDS011;44677;52.378;10.400;2023-07-28T04:41:01;5.80;;;2.70;;
58896;SDS011;44677;52.378;10.400;2023-07-28T04:43:45;3.40;;;3.00;;
58896;SDS011;44677;52.378;10.400;2023-07-28T04:46:11;4.90;;;3.10;;
58896;SDS011;44677;52.378;10.400;2023-07-28T04:48:36;3.30;;;3.00;;
58896;SDS011;44677;52.378;10.400;2023-07-28T04:51:02;3.10;;;2.60;;
58896;SDS011;44677;52.378;10.400;2023-07-28T04:54:03;3.40;;;2.90;;
58896;SDS011;44677;52.378;10.400;2023-07-28T04:56:30;2.70;;;2.60;;
58896;SDS011;44677;52.378;10.400;2023-07-28T04:58:55;3.20;;;2.90;;
58896;SDS011;44677;52.378;10.400;2023-07-28T05:01:21;3.30;;;3.00;;
58896;SDS011;44677;52.378;10.400;2023-07-28T05:03:46;2.80;;;2.60;;
58896;SDS011;44677;52.378;10.400;2023-07-28T05:06:21;4.10;;;3.20;;
58896;SDS011;44677;52.378;10.400;2023-07-28T05:08:46;3.30;;;3.00;;
58896;SDS011;44677;52.378;10.400;2023-07-28T05:11:12;3.20;;;3.00;;
58896;SDS011;44677;52.378;10.400;2023-07-28T05:13:38;3.00;;;2.80;;
58896;SDS011;44677;52.378;10.400;2023-07-28T05:16:03;3.00;;;2.80;;
58896;SDS011;44677;52.378;10.400;2023-07-28T05:18:47;3.40;;;3.10;;
58896;SDS011;44677;52.378;10.400;2023-07-28T05:21:31;3.60;;;3.00;;
58896;SDS011;44677;52.378;10.400;2023-07-28T05:23:57;3.30;;;3.10;;
58896;SDS011;44677;52.378;10.400;2023-07-28T05:26:22;3.20;;;3.00;;
58896;SDS011;44677;52.378;10.400;2023-07-28T05:28:48;3.40;;;3.10;;
58896;SDS011;44677;52.378;10.400;2023-07-28T05:31:13;4.10;;;2.90;;
58896;SDS011;44677;52.378;10.400;2023-07-28T05:33:41;3.80;;;3.20;;
58896;SDS011;44677;52.378;10.400;2023-07-28T05:36:06;3.50;;;3.20;;
58896;SDS011;44677;52.378;10.400;2023-07-28T05:38:32;5.60;;;4.30;;
58896;SDS011;44677;52.378;10.400;2023-07-28T05:40:58;4.10;;;2.80;;
58896;SDS011;44677;52.378;10.400;2023-07-28T05:43:29;3.20;;;2.90;;
58896;SDS011;44677;52.378;10.400;2023-07-28T05:45:56;3.30;;;3.00;;
58896;SDS011;44677;52.378;10.400;2023-07-28T05:48:22;3.10;;;2.90;;
58896;SDS011;44677;52.378;10.400;2023-07-28T05:50:47;3.80;;;3.20;;
58896;SDS011;44677;52.378;10.400;2023-07-28T05:53:13;3.20;;;2.90;;
58896;SDS011;44677;52.378;10.400;2023-07-28T05:55:40;3.80;;;3.20;;
58896;SDS011;44677;52.378;10.400;2023-07-28T05:58:06;4.50;;;3.20;;
58896;SDS011;44677;52.378;10.400;2023-07-28T06:00:32;3.20;;;3.00;;
58896;SDS011;44677;52.378;10.400;2023-07-28T06:02:57;3.60;;;3.40;;
58896;SDS011;44677;52.378;10.400;2023-07-28T06:05:45;3.40;;;3.20;;
58896;SDS011;44677;52.378;10.400;2023-07-28T06:08:10;4.90;;;3.00;;
58896;SDS011;44677;52.378;10.400;2023-07-28T06:10:36;3.40;;;3.10;;
58896;SDS011;44677;52.378;10.400;2023-07-28T06:13:02;5.40;;;3.00;;
58896;SDS011;44677;52.378;10.400;2023-07-28T06:15:30;3.60;;;3.30;;
58896;SDS011;44677;52.378;10.400;2023-07-28T06:17:56;3.70;;;3.20;;
58896;SDS011;44677;52.378;10.400;2023-07-28T06:20:21;4.70;;;3.10;;
58896;SDS011;44677;52.378;10.400;2023-07-28T06:22:47;3.70;;;3.40;;
58896;SDS011;44677;52.378;10.400;2023-07-28T06:25:12;3.50;;;3.20;;
58896;SDS011;44677;52.378;10.400;2023-07-28T06:27:37;3.90;;;3.00;;
58896;SDS011;44677;52.378;10.400;2023-07-28T06:30:04;3.20;;;2.90;;
58896;SDS011;44677;52.378;10.400;2023-07-28T06:32:30;3.50;;;3.20;;
58896;SDS011;44677;52.378;10.400;2023-07-28T06:34:56;3.50;;;3.20;;
58896;SDS011;44677;52.378;10.400;2023-07-28T06:37:22;4.30;;;3.30;;
58896;SDS011;44677;52.378;10.400;2023-07-28T06:39:48;3.20;;;3.00;;
58896;SDS011;44677;52.378;10.400;2023-07-28T06:42:14;4.20;;;3.60;;
58896;SDS011;44677;52.378;10.400;2023-07-28T06:44:42;3.50;;;3.20;;
58896;SDS011;44677;52.378;10.400;2023-07-28T06:47:07;3.60;;;3.30;;
58896;SDS011;44677;52.378;10.400;2023-07-28T06:49:33;3.80;;;3.50;;
58896;SDS011;44677;52.378;10.400;2023-07-28T06:52:00;4.00;;;3.50;;
58896;SDS011;44677;52.378;10.400;2023-07-28T06:54:25;4.80;;;3.50;;
58896;SDS011;44677;52.378;10.400;2023-07-28T06:56:50;4.60;;;3.60;;
58896;SDS011;44677;52.378;10.400;2023-07-28T06:59:16;3.50;;;3.10;;
58896;SDS011;44677;52.378;10.400;2023-07-28T07:01:41;6.10;;;3.80;;
58896;SDS011;44677;52.378;10.400;2023-07-28T07:04:07;3.90;;;3.50;;
58896;SDS011;44677;52.378;10.400;2023-07-28T07:06:32;4.20;;;3.50;;
58896;SDS011;44677;52.378;10.400;2023-07-28T07:08:58;3.60;;;3.20;;
58896;SDS011;44677;52.378;10.400;2023-07-28T07:11:23;3.60;;;3.20;;
58896;SDS011;44677;52.378;10.400;2023-07-28T07:13:48;3.80;;;3.50;;
58896;SDS011;44677;52.378;10.400;2023-07-28T07:16:15;5.20;;;3.40;;
58896;SDS011;44677;52.378;10.400;2023-07-28T07:18:42;3.50;;;3.20;;
58896;SDS011;44677;52.378;10.400;2023-07-28T07:21:08;3.60;;;3.20;;
58896;SDS011;44677;52.378;10.400;2023-07-28T07:23:34;4.50;;;3.50;;
58896;SDS011;44677;52.378;10.400;2023-07-28T07:25:59;3.40;;;3.10;;
58896;SDS011;44677;52.378;10.400;2023-07-28T07:28:25;3.00;;;2.80;;
58896;SDS011;44677;52.378;10.400;2023-07-28T07:30:50;6.30;;;2.90;;
58896;SDS011;44677;52.378;10.400;2023-07-28T07:33:16;5.20;;;3.40;;
58896;SDS011;44677;52.378;10.400;2023-07-28T07:35:41;2.50;;;2.40;;
58896;SDS011;44677;52.378;10.400;2023-07-28T07:38:06;6.80;;;2.80;;
58896;SDS011;44677;52.378;10.400;2023-07-28T07:40:34;2.70;;;2.50;;
58896;SDS011;44677;52.378;10.400;2023-07-28T07:43:01;4.00;;;2.80;;
58896;SDS011;44677;52.378;10.400;2023-07-28T07:45:28;2.70;;;2.30;;
58896;SDS011;44677;52.378;10.400;2023-07-28T07:47:57;2.80;;;2.50;;
58896;SDS011;44677;52.378;10.400;2023-07-28T07:50:23;3.00;;;2.50;;
58896;SDS011;44677;52.378;10.400;2023-07-28T07:52:49;3.00;;;2.70;;
58896;SDS011;44677;52.378;10.400;2023-07-28T07:55:14;4.50;;;2.90;;
58896;SDS011;44677;52.378;10.400;2023-07-28T07:57:40;3.30;;;3.00;;
58896;SDS011;44677;52.378;10.400;2023-07-28T08:00:06;6.10;;;2.90;;
58896;SDS011;44677;52.378;10.400;2023-07-28T08:02:37;3.10;;;2.80;;
58896;SDS011;44677;52.378;10.400;2023-07-28T08:05:03;7.40;;;3.30;;
58896;SDS011;44677;52.378;10.400;2023-07-28T08:07:29;3.80;;;3.50;;
58896;SDS011;44677;52.378;10.400;2023-07-28T08:09:54;4.70;;;3.40;;
58896;SDS011;44677;52.378;10.400;2023-07-28T08:12:20;3.70;;;3.30;;
58896;SDS011;44677;52.378;10.400;2023-07-28T08:14:45;9.00;;;4.00;;
58896;SDS011;44677;52.378;10.400;2023-07-28T08:17:11;4.00;;;3.70;;
58896;SDS011;44677;52.378;10.400;2023-07-28T08:19:36;5.50;;;4.30;;
58896;SDS011;44677;52.378;10.400;2023-07-28T08:22:02;3.80;;;3.50;;
58896;SDS011;44677;52.378;10.400;2023-07-28T08:24:30;4.90;;;3.70;;
58896;SDS011;44677;52.378;10.400;2023-07-28T08:26:56;3.80;;;3.50;;
58896;SDS011;44677;52.378;10.400;2023-07-28T08:29:22;4.90;;;3.90;;
58896;SDS011;44677;52.378;10.400;2023-07-28T08:31:47;5.20;;;3.70;;
58896;SDS011;44677;52.378;10.400;2023-07-28T08:34:12;3.90;;;3.60;;
58896;SDS011;44677;52.378;10.400;2023-07-28T08:36:38;4.90;;;3.40;;
58896;SDS011;44677;52.378;10.400;2023-07-28T08:39:03;5.00;;;3.80;;
58896;SDS011;44677;52.378;10.400;2023-07-28T08:41:30;3.70;;;3.50;;
58896;SDS011;44677;52.378;10.400;2023-07-28T08:43:55;5.80;;;4.00;;
58896;SDS011;44677;52.378;10.400;2023-07-28T08:46:21;3.80;;;3.50;;
58896;SDS011;44677;52.378;10.400;2023-07-28T08:48:46;4.80;;;3.50;;
58896;SDS011;44677;52.378;10.400;2023-07-28T08:51:12;4.20;;;3.90;;
58896;SDS011;44677;52.378;10.400;2023-07-28T08:53:38;4.00;;;3.60;;
58896;SDS011;44677;52.378;10.400;2023-07-28T08:56:04;4.00;;;3.60;;
58896;SDS011;44677;52.378;10.400;2023-07-28T08:58:29;5.00;;;3.50;;
58896;SDS011;44677;52.378;10.400;2023-07-28T09:00:55;5.70;;;3.80;;
58896;SDS011;44677;52.378;10.400;2023-07-28T09:03:20;3.50;;;3.20;;
58896;SDS011;44677;52.378;10.400;2023-07-28T09:05:47;4.30;;;3.90;;
58896;SDS011;44677;52.378;10.400;2023-07-28T09:08:15;5.20;;;4.60;;
58896;SDS011;44677;52.378;10.400;2023-07-28T09:10:42;5.00;;;4.60;;
58896;SDS011;44677;52.378;10.400;2023-07-28T09:13:08;4.90;;;4.50;;
58896;SDS011;44677;52.378;10.400;2023-07-28T09:15:36;5.50;;;5.00;;
58896;SDS011;44677;52.378;10.400;2023-07-28T09:18:01;5.20;;;4.70;;
58896;SDS011;44677;52.378;10.400;2023-07-28T09:20:32;5.40;;;4.70;;
58896;SDS011;44677;52.378;10.400;2023-07-28T09:23:02;5.50;;;5.00;;
58896;SDS011;44677;52.378;10.400;2023-07-28T09:25:28;5.30;;;4.80;;
58896;SDS011;44677;52.378;10.400;2023-07-28T09:27:57;6.20;;;5.00;;
58896;SDS011;44677;52.378;10.400;2023-07-28T09:30:45;8.10;;;5.60;;
58896;SDS011;44677;52.378;10.400;2023-07-28T09:33:30;5.40;;;4.90;;
58896;SDS011;44677;52.378;10.400;2023-07-28T09:36:12;4.80;;;4.40;;
58896;SDS011;44677;52.378;10.400;2023-07-28T09:38:40;4.50;;;4.20;;
58896;SDS011;44677;52.378;10.400;2023-07-28T09:41:12;4.90;;;4.20;;
58896;SDS011;44677;52.378;10.400;2023-07-28T09:43:38;5.20;;;4.30;;
58896;SDS011;44677;52.378;10.400;2023-07-28T09:48:31;5.60;;;4.20;;
58896;SDS011;44677;52.378;10.400;2023-07-28T09:50:59;6.10;;;3.90;;
58896;SDS011;44677;52.378;10.400;2023-07-28T09:53:29;3.90;;;3.50;;
58896;SDS011;44677;52.378;10.400;2023-07-28T09:55:56;3.80;;;3.50;;
58896;SDS011;44677;52.378;10.400;2023-07-28T09:58:26;3.60;;;3.40;;
58896;SDS011;44677;52.378;10.400;2023-07-28T10:00:55;3.40;;;3.10;;
58896;SDS011;44677;52.378;10.400;2023-07-28T10:03:21;5.10;;;3.40;;
58896;SDS011;44677;52.378;10.400;2023-07-28T10:05:47;4.80;;;3.20;;
58896;SDS011;44677;52.378;10.400;2023-07-28T10:08:14;3.70;;;3.40;;
58896;SDS011;44677;52.378;10.400;2023-07-28T10:10:40;3.00;;;2.80;;
58896;SDS011;44677;52.378;10.400;2023-07-28T10:13:19;3.00;;;2.80;;
58896;SDS011;44677;52.378;10.400;2023-07-28T10:15:50;8.60;;;3.00;;
58896;SDS011;44677;52.378;10.400;2023-07-28T10:18:19;3.30;;;2.50;;
58896;SDS011;44677;52.378;10.400;2023-07-28T10:20:45;4.60;;;2.20;;
58896;SDS011;44677;52.378;10.400;2023-07-28T10:23:20;4.00;;;2.70;;
58896;SDS011;44677;52.378;10.400;2023-07-28T10:25:47;3.90;;;2.40;;
58896;SDS011;44677;52.378;10.400;2023-07-28T10:28:25;5.10;;;2.60;;
58896;SDS011;44677;52.378;10.400;2023-07-28T10:30:54;2.40;;;2.30;;
58896;SDS011;44677;52.378;10.400;2023-07-28T10:38:47;3.30;;;2.20;;
58896;SDS011;44677;52.378;10.400;2023-07-28T10:41:27;2.90;;;2.60;;
58896;SDS011;44677;52.378;10.400;2023-07-28T10:43:52;2.50;;;2.30;;
58896;SDS011;44677;52.378;10.400;2023-07-28T10:46:20;2.60;;;2.40;;
58896;SDS011;44677;52.378;10.400;2023-07-28T10:48:46;2.20;;;2.10;;
58896;SDS011;44677;52.378;10.400;2023-07-28T10:51:26;2.60;;;2.30;;
58896;SDS011;44677;52.378;10.400;2023-07-28T10:53:58;2.80;;;2.40;;
58896;SDS011;44677;52.378;10.400;2023-07-28T10:59:00;2.80;;;2.60;;
58896;SDS011;44677;52.378;10.400;2023-07-28T11:04:09;3.60;;;2.50;;
58896;SDS011;44677;52.378;10.400;2023-07-28T11:06:40;3.90;;;2.70;;
58896;SDS011;44677;52.378;10.400;2023-07-28T11:09:08;3.10;;;2.30;;
58896;SDS011;44677;52.378;10.400;2023-07-28T11:11:35;2.70;;;2.50;;
58896;SDS011;44677;52.378;10.400;2023-07-28T11:14:01;4.60;;;2.30;;
58896;SDS011;44677;52.378;10.400;2023-07-28T11:16:28;2.40;;;2.20;;
58896;SDS011;44677;52.378;10.400;2023-07-28T11:19:00;6.20;;;2.60;;
58896;SDS011;44677;52.378;10.400;2023-07-28T11:21:27;3.10;;;2.10;;
58896;SDS011;44677;52.378;10.400;2023-07-28T11:23:52;4.40;;;2.10;;
58896;SDS011;44677;52.378;10.400;2023-07-28T11:28:44;2.20;;;2.10;;
58896;SDS011;44677;52.378;10.400;2023-07-28T11:31:10;2.10;;;2.00;;
58896;SDS011;44677;52.378;10.400;2023-07-28T11:33:36;3.20;;;2.10;;
58896;SDS011;44677;52.378;10.400;2023-07-28T11:36:02;2.80;;;2.10;;
58896;SDS011;44677;52.378;10.400;2023-07-28T11:38:27;2.10;;;2.00;;
58896;SDS011;44677;52.378;10.400;2023-07-28T11:40:54;2.60;;;2.00;;
58896;SDS011;44677;52.378;10.400;2023-07-28T11:43:21;3.00;;;2.10;;
58896;SDS011;44677;52.378;10.400;2023-07-28T11:45:47;2.20;;;2.00;;
58896;SDS011;44677;52.378;10.400;2023-07-28T11:48:13;2.20;;;2.10;;
58896;SDS011;44677;52.378;10.400;2023-07-28T11:50:41;2.30;;;2.10;;
58896;SDS011;44677;52.378;10.400;2023-07-28T11:53:07;2.10;;;1.90;;
58896;SDS011;44677;52.378;10.400;2023-07-28T11:55:37;3.30;;;1.80;;
58896;SDS011;44677;52.378;10.400;2023-07-28T11:58:06;2.00;;;1.80;;
58896;SDS011;44677;52.378;10.400;2023-07-28T12:00:36;1.90;;;1.80;;
58896;SDS011;44677;52.378;10.400;2023-07-28T12:03:05;2.20;;;2.00;;
58896;SDS011;44677;52.378;10.400;2023-07-28T12:05:38;2.30;;;1.90;;
58896;SDS011;44677;52.378;10.400;2023-07-28T12:08:04;1.80;;;1.70;;
58896;SDS011;44677;52.378;10.400;2023-07-28T12:10:29;2.70;;;1.90;;
58896;SDS011;44677;52.378;10.400;2023-07-28T12:12:57;3.90;;;1.90;;
58896;SDS011;44677;52.378;10.400;2023-07-28T12:15:27;2.40;;;1.90;;
58896;SDS011;44677;52.378;10.400;2023-07-28T12:20:41;1.70;;;1.60;;
58896;SDS011;44677;52.378;10.400;2023-07-28T12:23:11;1.60;;;1.50;;
58896;SDS011;44677;52.378;10.400;2023-07-28T12:25:38;2.90;;;1.70;;
58896;SDS011;44677;52.378;10.400;2023-07-28T12:28:04;4.30;;;1.70;;
58896;SDS011;44677;52.378;10.400;2023-07-28T12:30:30;1.80;;;1.70;;
58896;SDS011;44677;52.378;10.400;2023-07-28T12:32:56;2.70;;;2.30;;
58896;SDS011;44677;52.378;10.400;2023-07-28T12:35:21;1.80;;;1.70;;
58896;SDS011;44677;52.378;10.400;2023-07-28T12:37:49;2.00;;;1.90;;
58896;SDS011;44677;52.378;10.400;2023-07-28T12:40:16;2.60;;;2.40;;
58896;SDS011;44677;52.378;10.400;2023-07-28T12:42:41;2.10;;;2.00;;
58896;SDS011;44677;52.378;10.400;2023-07-28T12:45:07;2.30;;;1.80;;
58896;SDS011;44677;52.378;10.400;2023-07-28T12:47:33;2.10;;;2.00;;
58896;SDS011;44677;52.378;10.400;2023-07-28T12:49:59;2.40;;;2.20;;
58896;SDS011;44677;52.378;10.400;2023-07-28T12:52:24;2.10;;;2.00;;
58896;SDS011;44677;52.378;10.400;2023-07-28T12:54:49;3.20;;;1.90;;
58896;SDS011;44677;52.378;10.400;2023-07-28T12:57:15;2.30;;;1.90;;
58896;SDS011;44677;52.378;10.400;2023-07-28T12:59:40;4.00;;;1.80;;
58896;SDS011;44677;52.378;10.400;2023-07-28T13:02:05;2.90;;;2.20;;
58896;SDS011;44677;52.378;10.400;2023-07-28T13:04:31;3.90;;;2.10;;
58896;SDS011;44677;52.378;10.400;2023-07-28T13:06:56;2.10;;;2.00;;
58896;SDS011;44677;52.378;10.400;2023-07-28T13:09:22;2.00;;;1.90;;
58896;SDS011;44677;52.378;10.400;2023-07-28T13:11:47;2.30;;;1.90;;
58896;SDS011;44677;52.378;10.400;2023-07-28T13:14:12;2.30;;;2.10;;
58896;SDS011;44677;52.378;10.400;2023-07-28T13:16:38;4.00;;;1.90;;
58896;SDS011;44677;52.378;10.400;2023-07-28T13:19:04;2.30;;;2.10;;
58896;SDS011;44677;52.378;10.400;2023-07-28T13:21:30;2.20;;;2.10;;
58896;SDS011;44677;52.378;10.400;2023-07-28T13:23:56;2.10;;;2.00;;
58896;SDS011;44677;52.378;10.400;2023-07-28T13:26:21;2.00;;;1.90;;
58896;SDS011;44677;52.378;10.400;2023-07-28T13:28:47;1.90;;;1.70;;
58896;SDS011;44677;52.378;10.400;2023-07-28T13:31:14;2.10;;;1.90;;
58896;SDS011;44677;52.378;10.400;2023-07-28T13:33:41;2.00;;;1.90;;
58896;SDS011;44677;52.378;10.400;2023-07-28T13:36:06;2.00;;;1.90;;
58896;SDS011;44677;52.378;10.400;2023-07-28T13:38:33;2.10;;;1.90;;
58896;SDS011;44677;52.378;10.400;2023-07-28T13:40:58;2.80;;;1.90;;
58896;SDS011;44677;52.378;10.400;2023-07-28T13:43:24;2.20;;;2.10;;
58896;SDS011;44677;52.378;10.400;2023-07-28T13:45:49;2.20;;;2.10;;
58896;SDS011;44677;52.378;10.400;2023-07-28T13:48:15;2.00;;;1.90;;
58896;SDS011;44677;52.378;10.400;2023-07-28T13:50:40;1.90;;;1.80;;
58896;SDS011;44677;52.378;10.400;2023-07-28T13:53:06;2.20;;;2.00;;
58896;SDS011;44677;52.378;10.400;2023-07-28T13:55:31;2.10;;;2.00;;
58896;SDS011;44677;52.378;10.400;2023-07-28T13:57:56;2.80;;;2.00;;
58896;SDS011;44677;52.378;10.400;2023-07-28T14:00:22;2.20;;;2.10;;
58896;SDS011;44677;52.378;10.400;2023-07-28T14:02:47;4.30;;;2.20;;
58896;SDS011;44677;52.378;10.400;2023-07-28T14:05:12;2.10;;;1.80;;
58896;SDS011;44677;52.378;10.400;2023-07-28T14:07:38;1.80;;;1.70;;
58896;SDS011;44677;52.378;10.400;2023-07-28T14:10:03;2.00;;;1.90;;
58896;SDS011;44677;52.378;10.400;2023-07-28T14:12:29;2.60;;;2.10;;
58896;SDS011;44677;52.378;10.400;2023-07-28T14:14:54;1.70;;;1.60;;
58896;SDS011;44677;52.378;10.400;2023-07-28T14:17:20;3.10;;;1.60;;
58896;SDS011;44677;52.378;10.400;2023-07-28T14:19:45;4.20;;;1.80;;
58896;SDS011;44677;52.378;10.400;2023-07-28T14:22:11;2.70;;;2.30;;
58896;SDS011;44677;52.378;10.400;2023-07-28T14:24:37;2.30;;;2.00;;
58896;SDS011;44677;52.378;10.400;2023-07-28T14:27:02;1.90;;;1.80;;
58896;SDS011;44677;52.378;10.400;2023-07-28T14:29:28;1.90;;;1.80;;
58896;SDS011;44677;52.378;10.400;2023-07-28T14:31:53;1.90;;;1.80;;
58896;SDS011;44677;52.378;10.400;2023-07-28T14:34:19;2.30;;;1.80;;
58896;SDS011;44677;52.378;10.400;2023-07-28T14:36:44;2.20;;;2.10;;
58896;SDS011;44677;52.378;10.400;2023-07-28T14:39:10;2.50;;;1.80;;
58896;SDS011;44677;52.378;10.400;2023-07-28T14:44:01;2.10;;;2.00;;
58896;SDS011;44677;52.378;10.400;2023-07-28T14:46:27;2.70;;;1.80;;
58896;SDS011;44677;52.378;10.400;2023-07-28T14:48:55;2.00;;;1.90;;
58896;SDS011;44677;52.378;10.400;2023-07-28T14:51:23;2.00;;;1.60;;
58896;SDS011;44677;52.378;10.400;2023-07-28T14:53:49;2.70;;;2.10;;
58896;SDS011;44677;52.378;10.400;2023-07-28T14:56:15;2.00;;;1.90;;
58896;SDS011;44677;52.378;10.400;2023-07-28T14:58:41;2.10;;;1.90;;
58896;SDS011;44677;52.378;10.400;2023-07-28T15:01:06;2.70;;;2.00;;
58896;SDS011;44677;52.378;10.400;2023-07-28T15:03:32;3.00;;;1.90;;
58896;SDS011;44677;52.378;10.400;2023-07-28T15:05:59;1.90;;;1.80;;